Meteo Giornale » Osservazioni meteo Gran Bretagna » Boulmer

ore: 03:50 - Osservazioni Meteo Boulmer
Lat. 55° 25' N Lon. 1° 36' W Alt. 23 metri s.l.m.

sereno Europe/London

10 °C

Sereno

Temp. 24 Ore

9 °C

16 °C

Sud/Sud-Ovest

16.7 Km/h

Dew point 9 °C

Umidità 93 %

Visibilità  10 Km

Il sole sorge alle ore 07:39

Il sole tramonta alle ore 18:03

Data e Ora Cielo e Fenomeni T °C DP °C Um. % Pres. hPa Vis. km Vento km/h
Oggi h: 03:50 sereno Sereno 10 9 93 1012 10 S/SO 16.7
Oggi h: 02:50 poco_nuvoloso Poco Nuvoloso 10 9 93 1012 10 S 11.1
Oggi h: 01:50 molto_nuvoloso Molto Nuvoloso 12 10 87 1011 10 S 11.1
Oggi h: 00:50 molto_nuvoloso Molto Nuvoloso 12 10 87 1011 10 S 11.1
Ieri h: 23:50 molto_nuvoloso Molto Nuvoloso 11 10 93 1011 10 S 9.3
Ieri h: 22:50 molto_nuvoloso Molto Nuvoloso 12 10 87 1011 10 N 5.5
Ieri h: 21:50 molto_nuvoloso Molto Nuvoloso 13 11 87 1011 10 S 14.8
Ieri h: 20:50 molto_nuvoloso Molto Nuvoloso 13 10 81 1010 10 S/SO 14.8
Ieri h: 19:50 molto_nuvoloso Molto Nuvoloso 14 10 76 1010 10 S 13
Ieri h: 18:50 molto_nuvoloso Molto Nuvoloso 14 9 71 1010 10 S/SO 16.7
Ieri h: 17:50 molto_nuvoloso Molto Nuvoloso 14 9 71 1010 10 SO 16.7
Ieri h: 16:50 molto_nuvoloso Molto Nuvoloso 15 10 72 1009 10 S/SO 18.5
Ieri h: 15:50 molto_nuvoloso Molto Nuvoloso 15 10 72 1009 10 S/SO 25.9
Ieri h: 14:50 nuvoloso Nuvoloso 16 11 72 1009 10 S/SO 27.8
Ieri h: 13:50 poco_nuvoloso Poco Nuvoloso 13 12 93 1009 10 S/SE 20.3
Ieri h: 12:50 nuvoloso Nuvoloso 14 11 82 1010 10 S 24
Ieri h: 11:50 nuvoloso Nuvoloso 12 11 93 1010 10 SE 18.5
Ieri h: 10:50 molto_nuvoloso Molto Nuvoloso 12 11 93 1011 10 S 24
Ieri h: 09:50 molto_nuvoloso Molto Nuvoloso 11 10 93 1011 10 S 18.5
Ieri h: 08:50 molto_nuvoloso Molto Nuvoloso 11 10 93 1012 10 S 16.7
Ieri h: 07:50 foschia Foschia 11 10 93 1012 9 S/SE 20.3
Ieri h: 06:50 coperto Coperto 11 10 93 1012 10 S/SE 22.2
Ieri h: 05:50 foschia Foschia 9 9 100 1012 6 S/SE 13
Ieri h: 04:50 coperto_pioggia Pioggia Debole 9 9 100 1013 4 S 11.1